Weather reports worldwide

Advertisment
Firenze, Italy (16171): temperature & dewpoint: 17.07.2019 22:00:00 - 23.07.2019 22:00:00 (CEST)Firenze, Italy (16171): reduced air pressure: 17.07.2019 22:00:00 - 23.07.2019 22:00:00 (CEST)
Date & Time tt [°C] td [°C] ppp [hPa]
23.07.2019 22:00:00 32,6 23,8 1016,1
23.07.2019 21:00:00 33,7 24,3 1015,5
23.07.2019 20:00:00 35,1 24,7 1015,4
23.07.2019 19:00:00 36,1 24,7 1015,3
23.07.2019 18:00:00 36,6 23,5 1015,4
23.07.2019 17:00:00 37,4 22,8 1015,6
23.07.2019 16:00:00 37,9 22,8 1016,1
23.07.2019 15:00:00 37,7 22,2 1016,6
23.07.2019 14:00:00 37,2 23,3 1017,2
23.07.2019 13:00:00 36,1 23,0 1017,9
23.07.2019 12:00:00 33,7 22,5 1018,4
23.07.2019 11:00:00 32,3 24,3 1018,8
23.07.2019 10:00:00 29,4 24,7 1019,1
23.07.2019 09:00:00 26,1 23,9 1019,5
23.07.2019 08:00:00 25,5 23,9 1019,5
23.07.2019 07:00:00 22,7 21,6 1019,4
23.07.2019 06:00:00 22,7 21,3 1019,4
23.07.2019 05:00:00 22,9 21,3 1019,3
23.07.2019 04:00:00 23,5 21,7 1019,5
23.07.2019 03:00:00 24,3 21,7 1019,7
23.07.2019 02:00:00 25,0 21,5 1019,8
23.07.2019 01:00:00 26,6 22,0 1019,7
23.07.2019 00:00:00 28,1 22,5 1019,7
22.07.2019 23:00:00 29,6 23,3 1019,3
22.07.2019 22:00:00 31,0 23,9 1019,0
22.07.2019 21:00:00 32,0 24,3 1018,6
22.07.2019 20:00:00 33,1 24,8 1018,2
22.07.2019 19:00:00 34,2 24,7 1018,0
22.07.2019 18:00:00 35,0 24,6 1018,0
22.07.2019 17:00:00 35,5 24,8 1018,3
22.07.2019 16:00:00 36,0 24,9 1018,8
22.07.2019 15:00:00 35,5 25,1 1019,3
22.07.2019 14:00:00 34,5 24,7 1020,0
22.07.2019 13:00:00 33,0 24,5 1020,8
22.07.2019 12:00:00 30,1 24,4 1021,3
22.07.2019 11:00:00 28,7 23,8 1021,8
22.07.2019 10:00:00 26,2 24,4 1021,7
22.07.2019 09:00:00 23,7 21,9 1022,1
22.07.2019 08:00:00 23,3 21,9 1022,0
22.07.2019 07:00:00 20,9 20,0 1021,8
22.07.2019 06:00:00 21,0 19,9 1021,4
22.07.2019 05:00:00 21,7 20,6 1021,6
22.07.2019 04:00:00 21,8 20,6 1021,6
22.07.2019 03:00:00 22,2 20,8 1021,9
22.07.2019 02:00:00 23,2 21,6 1022,0
22.07.2019 01:00:00 24,1 22,3 1021,9
22.07.2019 00:00:00 25,5 23,7 1021,8
21.07.2019 23:00:00 26,5 23,3 1021,4
21.07.2019 22:00:00 27,5 21,7 1020,7
21.07.2019 21:00:00 28,9 20,8 1019,6
21.07.2019 20:00:00 30,5 21,3 1019,3
21.07.2019 19:00:00 31,9 21,7 1018,9
21.07.2019 18:00:00 33,0 21,5 1018,7
21.07.2019 17:00:00 33,4 21,2 1018,8
21.07.2019 16:00:00 34,3 22,4 1019,1
21.07.2019 15:00:00 33,9 21,7 1019,7
21.07.2019 14:00:00 33,1 21,6 1020,0
21.07.2019 13:00:00 32,0 22,1 1020,3
21.07.2019 12:00:00 29,4 21,8 1020,6
21.07.2019 11:00:00 28,4 22,6 1020,9
21.07.2019 10:00:00 26,2 23,0 1021,2
21.07.2019 09:00:00 23,1 20,8 1021,2
21.07.2019 08:00:00 21,9 20,1 1021,2
21.07.2019 07:00:00 19,7 18,5 1021,3
21.07.2019 06:00:00 19,8 18,2 1021,1
21.07.2019 05:00:00 20,4 18,6 1020,6
21.07.2019 04:00:00 21,1 18,8 1020,5
21.07.2019 03:00:00 21,6 18,7 1020,7
21.07.2019 02:00:00 22,4 18,7 1020,4
21.07.2019 01:00:00 23,4 18,9 1020,0
21.07.2019 00:00:00 24,7 19,0 1020,0
20.07.2019 23:00:00 26,1 19,4 1019,3
20.07.2019 22:00:00 27,2 19,5 1018,9
20.07.2019 21:00:00 28,8 19,7 1018,0
20.07.2019 20:00:00 30,6 21,4 1017,6
20.07.2019 19:00:00 31,8 21,6 1017,5
20.07.2019 18:00:00 32,6 22,1 1017,5
20.07.2019 17:00:00 33,2 20,4 1017,4
20.07.2019 16:00:00 34,6 20,2 1017,5
20.07.2019 15:00:00 34,3 21,7 1017,7
20.07.2019 14:00:00 33,5 20,6 1018,0
20.07.2019 13:00:00 32,1 21,9 1018,6
20.07.2019 12:00:00 29,3 20,7 1018,7
20.07.2019 11:00:00 28,4 20,9 1018,8
20.07.2019 10:00:00 25,7 20,2 1018,9
20.07.2019 09:00:00 22,8 18,7 1019,1
20.07.2019 08:00:00 22,0 18,3 1018,9
20.07.2019 07:00:00 19,0 17,3 1018,6
20.07.2019 06:00:00 19,0 16,4 1018,3
20.07.2019 05:00:00 19,7 16,3 1018,0
20.07.2019 04:00:00 20,9 16,6 1017,8
20.07.2019 03:00:00 21,3 16,6 1017,8
20.07.2019 02:00:00 21,8 16,5 1017,7
20.07.2019 01:00:00 22,7 16,6 1017,4
20.07.2019 00:00:00 23,4 16,8 1017,3
19.07.2019 23:00:00 24,8 17,0 1016,5
19.07.2019 22:00:00 26,6 18,1 1016,3
19.07.2019 21:00:00 28,3 19,5 1015,5
19.07.2019 20:00:00 29,9 21,5 1015,1
19.07.2019 19:00:00 30,7 21,5 1014,7
19.07.2019 18:00:00 31,7 21,2 1014,7
19.07.2019 17:00:00 32,4 20,0 1014,6
19.07.2019 16:00:00 33,4 20,2 1014,6
19.07.2019 15:00:00 33,0 20,2 1015,2
19.07.2019 14:00:00 31,8 20,1 1015,5
19.07.2019 13:00:00 30,9 21,1 1015,9
19.07.2019 12:00:00 29,0 20,1 1016,2
19.07.2019 11:00:00 27,6 19,6 1016,3
19.07.2019 10:00:00 24,9 19,2 1016,4
19.07.2019 09:00:00 22,3 17,6 1016,3
19.07.2019 08:00:00 21,2 18,1 1016,0
19.07.2019 07:00:00 18,8 17,1 1015,7
19.07.2019 06:00:00 18,5 16,8 1015,6
19.07.2019 05:00:00 18,6 16,1 1015,5
19.07.2019 04:00:00 19,2 15,6 1015,3
19.07.2019 03:00:00 20,9 16,8 1015,0
19.07.2019 02:00:00 21,2 16,5 1014,6
19.07.2019 01:00:00 22,5 17,3 1014,3
19.07.2019 00:00:00 22,3 16,5 1014,1
18.07.2019 23:00:00 23,9 16,6 1013,6
18.07.2019 22:00:00 25,4 16,5 1013,1
18.07.2019 21:00:00 27,3 17,1 1012,2
18.07.2019 20:00:00 29,0 18,4 1011,7
18.07.2019 19:00:00 30,4 20,3 1011,3
18.07.2019 18:00:00 30,9 21,1 1010,9
18.07.2019 17:00:00 31,7 20,9 1010,7
18.07.2019 16:00:00 32,0 21,5 1011,4
18.07.2019 15:00:00 31,7 21,5 1011,6
18.07.2019 14:00:00 30,2 21,0 1011,9
18.07.2019 13:00:00 29,1 21,3 1012,3
18.07.2019 12:00:00 27,2 20,5 1012,5
18.07.2019 11:00:00 26,3 20,8 1012,4
18.07.2019 10:00:00 24,3 22,3 1012,4
18.07.2019 09:00:00 21,7 20,1 1012,6
18.07.2019 08:00:00 21,1 19,7 1012,3
18.07.2019 07:00:00 18,0 17,1 1012,3
18.07.2019 06:00:00 18,0 16,8 1012,2
18.07.2019 05:00:00 19,0 17,6 1012,0
18.07.2019 04:00:00 19,5 17,9 1012,2
18.07.2019 03:00:00 20,4 18,6 1012,3
18.07.2019 02:00:00 20,6 18,8 1012,7
18.07.2019 01:00:00 21,5 18,4 1012,8
18.07.2019 00:00:00 22,5 18,2 1012,5
17.07.2019 23:00:00 24,0 18,8 1012,2
17.07.2019 22:00:00 25,2 17,8 1011,7

tt = temperature
td = dewpoint
ppp = reduced air pressure

Next stations